Time;durP1;ratioP1;P1;durP2;ratioP2;P2;SDS_P1;SDS_P2;PMS_P1;PMS_P2;Temp;Humidity;BMP_temperature;BMP_pressure;BME280_temperature;BME280_humidity;BME280_pressure;Samples;Min_cycle;Max_cycle;Signal;HPM_P1;HPM_P2
2022/02/11 00:02:18;;;;;;;2.00;1.30;;;;;;;;;;5024393;28;20579;-79
2022/02/11 00:07:34;;;;;;;2.53;1.40;;;;;;;;;;5022321;28;20769;-78
2022/02/11 00:10:02;;;;;;;1.73;1.23;;;;;;;;;;5024247;28;20272;-78
2022/02/11 00:12:29;;;;;;;2.20;1.50;;;;;;;;;;5022152;28;20232;-79
2022/02/11 00:15:08;;;;;;;2.13;1.40;;;;;;;;;;5022156;28;20203;-79
2022/02/11 00:17:37;;;;;;;2.43;1.77;;;;;;;;;;5021533;28;20275;-78
2022/02/11 00:20:04;;;;;;;4.33;2.13;;;;;;;;;;5023472;28;20214;-79
2022/02/11 00:22:32;;;;;;;2.93;2.10;;;;;;;;;;5023138;28;20214;-79
2022/02/11 00:24:59;;;;;;;3.67;2.00;;;;;;;;;;5027170;28;20200;-79
2022/02/11 00:30:39;;;;;;;3.93;1.97;;;;;;;;;;5019497;28;20596;-79
2022/02/11 00:33:18;;;;;;;3.57;2.20;;;;;;;;;;5025680;28;20224;-79
2022/02/11 00:35:51;;;;;;;3.50;2.30;;;;;;;;;;5024603;28;20200;-79
2022/02/11 00:38:22;;;;;;;2.53;1.63;;;;;;;;;;5027234;28;20693;-78
2022/02/11 00:46:29;;;;;;;4.07;1.53;;;;;;;;;;5029869;28;20235;-79
2022/02/11 01:02:48;;;;;;;1.60;1.07;;;;;;;;;;5007469;28;20195;-78
2022/02/11 01:05:17;;;;;;;3.63;1.10;;;;;;;;;;5025037;28;20211;-78
2022/02/11 01:07:44;;;;;;;6.50;1.17;;;;;;;;;;5021743;28;20290;-78
2022/02/11 01:10:11;;;;;;;1.33;1.07;;;;;;;;;;5023952;28;20302;-78
2022/02/11 01:12:40;;;;;;;2.07;1.30;;;;;;;;;;5023364;28;20210;-77
2022/02/11 01:15:08;;;;;;;1.40;1.10;;;;;;;;;;5023531;28;20212;-78
2022/02/11 01:17:36;;;;;;;1.47;1.13;;;;;;;;;;5021313;28;20212;-78
2022/02/11 01:20:09;;;;;;;1.43;1.20;;;;;;;;;;5024632;28;20218;-78
2022/02/11 01:22:52;;;;;;;2.20;1.30;;;;;;;;;;5019898;28;20210;-78
2022/02/11 01:25:29;;;;;;;2.00;1.43;;;;;;;;;;5024880;28;20219;-77
2022/02/11 01:28:05;;;;;;;2.70;1.57;;;;;;;;;;5021623;28;20261;-77
2022/02/11 01:33:35;;;;;;;2.63;1.60;;;;;;;;;;5022255;28;20703;-78
2022/02/11 01:36:14;;;;;;;2.37;1.73;;;;;;;;;;5031510;28;20195;-78
2022/02/11 01:39:01;;;;;;;2.10;1.47;;;;;;;;;;5034067;28;20207;-78
2022/02/11 01:44:53;;;;;;;3.13;2.03;;;;;;;;;;5023601;28;20259;-79
2022/02/11 01:52:58;;;;;;;3.70;1.83;;;;;;;;;;5031708;28;20245;-79
2022/02/11 01:55:54;;;;;;;3.43;1.90;;;;;;;;;;5033992;28;20219;-78
2022/02/11 02:01:25;;;;;;;4.00;1.90;;;;;;;;;;5028085;28;20222;-78
2022/02/11 02:19:07;;;;;;;2.20;1.57;;;;;;;;;;5071401;28;20353;-79
2022/02/11 02:24:34;;;;;;;2.83;1.60;;;;;;;;;;5070189;28;20226;-78
2022/02/11 02:27:21;;;;;;;3.00;1.50;;;;;;;;;;5060287;28;20214;-78
2022/02/11 02:33:08;;;;;;;2.77;1.50;;;;;;;;;;5063295;28;20222;-79
2022/02/11 02:38:46;;;;;;;4.97;1.97;;;;;;;;;;5066744;28;20205;-79
2022/02/11 02:58:00;;;;;;;7.27;2.93;;;;;;;;;;5031357;28;20250;-79
2022/02/11 03:34:34;;;;;;;15.03;6.80;;;;;;;;;;5045548;28;20281;-79
2022/02/11 03:34:47;;;;;;;15.40;6.43;;;;;;;;;;5042680;28;20238;-79
2022/02/11 03:51:21;;;;;;;13.90;6.77;;;;;;;;;;5042851;28;20222;-78
2022/02/11 03:54:26;;;;;;;14.17;6.77;;;;;;;;;;5046540;28;20217;-79
2022/02/11 04:55:01;;;;;;;28.43;9.70;;;;;;;;;;5041053;28;20238;-79
2022/02/11 05:00:15;;;;;;;26.33;10.23;;;;;;;;;;5045296;28;20222;-77
2022/02/11 05:02:43;;;;;;;26.83;10.20;;;;;;;;;;5038576;28;20196;-79
2022/02/11 05:05:10;;;;;;;30.53;10.23;;;;;;;;;;5042433;28;20554;-79
2022/02/11 05:07:38;;;;;;;32.47;10.73;;;;;;;;;;5046879;28;20207;-78
2022/02/11 05:10:05;;;;;;;25.67;10.07;;;;;;;;;;5041944;28;20302;-80
2022/02/11 05:12:34;;;;;;;21.20;9.67;;;;;;;;;;5041630;28;20251;-78
2022/02/11 05:15:05;;;;;;;20.33;8.20;;;;;;;;;;5044802;28;20213;-79
2022/02/11 05:17:32;;;;;;;25.33;10.83;;;;;;;;;;5041975;28;20210;-78
2022/02/11 05:19:59;;;;;;;23.10;9.70;;;;;;;;;;5043222;28;20195;-77
2022/02/11 05:22:26;;;;;;;23.50;10.77;;;;;;;;;;5043256;28;20211;-78
2022/02/11 05:24:53;;;;;;;29.37;9.90;;;;;;;;;;5037296;28;20199;-79
2022/02/11 05:27:21;;;;;;;25.47;9.63;;;;;;;;;;5044911;28;20195;-78
2022/02/11 05:29:49;;;;;;;26.07;9.37;;;;;;;;;;5041062;28;20211;-78
2022/02/11 05:32:16;;;;;;;26.53;10.37;;;;;;;;;;5041067;28;20231;-79
2022/02/11 05:34:43;;;;;;;22.60;9.60;;;;;;;;;;5034505;28;20203;-77
2022/02/11 05:37:11;;;;;;;24.53;9.97;;;;;;;;;;5037389;28;20301;-79
2022/02/11 05:39:38;;;;;;;21.83;9.63;;;;;;;;;;5039963;28;20633;-81
2022/02/11 05:42:05;;;;;;;27.13;9.90;;;;;;;;;;5041809;28;20223;-78
2022/02/11 05:44:32;;;;;;;30.37;10.20;;;;;;;;;;5042800;28;20299;-76
2022/02/11 05:47:01;;;;;;;16.60;8.13;;;;;;;;;;5040935;28;20227;-79
2022/02/11 05:49:28;;;;;;;25.50;8.70;;;;;;;;;;5038550;28;20217;-79
2022/02/11 05:51:55;;;;;;;21.40;8.67;;;;;;;;;;5042124;28;20215;-78
2022/02/11 05:54:22;;;;;;;23.00;9.03;;;;;;;;;;5037906;28;20598;-78
2022/02/11 05:56:49;;;;;;;26.57;8.27;;;;;;;;;;5042789;28;20199;-79
2022/02/11 05:59:17;;;;;;;18.27;7.83;;;;;;;;;;5040652;28;20203;-78
2022/02/11 06:01:45;;;;;;;24.93;8.53;;;;;;;;;;5041393;28;20254;-78
2022/02/11 06:04:13;;;;;;;18.10;7.00;;;;;;;;;;5040150;28;20670;-78
2022/02/11 06:06:40;;;;;;;15.07;7.73;;;;;;;;;;5041181;28;20238;-79
2022/02/11 06:09:07;;;;;;;19.93;8.47;;;;;;;;;;5043207;28;20213;-79
2022/02/11 06:11:35;;;;;;;20.00;8.40;;;;;;;;;;5042037;28;20318;-78
2022/02/11 06:14:02;;;;;;;21.57;7.83;;;;;;;;;;5041759;28;20214;-78
2022/02/11 06:16:29;;;;;;;14.47;7.07;;;;;;;;;;5039614;28;20689;-78
2022/02/11 06:18:56;;;;;;;14.33;7.40;;;;;;;;;;5042373;28;20206;-79
2022/02/11 06:21:24;;;;;;;17.47;6.87;;;;;;;;;;5042940;28;20284;-79
2022/02/11 06:23:55;;;;;;;14.27;6.67;;;;;;;;;;5039524;28;20273;-78
2022/02/11 06:26:23;;;;;;;15.07;6.60;;;;;;;;;;5037134;28;20207;-78
2022/02/11 06:28:50;;;;;;;14.00;6.20;;;;;;;;;;5045130;28;20206;-78
2022/02/11 06:31:18;;;;;;;15.60;6.30;;;;;;;;;;5044546;28;20248;-79
2022/02/11 06:33:45;;;;;;;13.97;6.30;;;;;;;;;;5043581;28;20575;-79
2022/02/11 06:36:16;;;;;;;13.73;6.50;;;;;;;;;;5040373;28;20207;-79
2022/02/11 06:38:45;;;;;;;13.20;5.83;;;;;;;;;;5040232;28;20298;-80
2022/02/11 06:41:12;;;;;;;13.07;6.67;;;;;;;;;;5040754;28;20223;-79
2022/02/11 06:43:39;;;;;;;15.47;6.43;;;;;;;;;;5032333;28;20207;-78
2022/02/11 06:46:06;;;;;;;14.53;6.40;;;;;;;;;;5037533;28;20322;-77
2022/02/11 06:48:33;;;;;;;14.20;7.10;;;;;;;;;;5037458;28;20211;-80
2022/02/11 06:51:01;;;;;;;18.40;7.67;;;;;;;;;;5032578;28;20226;-79
2022/02/11 06:53:28;;;;;;;17.70;7.53;;;;;;;;;;5037275;28;20266;-80
2022/02/11 06:55:56;;;;;;;22.53;7.73;;;;;;;;;;5041311;28;20217;-80
2022/02/11 06:58:24;;;;;;;18.93;7.00;;;;;;;;;;5042725;28;20214;-80
2022/02/11 07:00:51;;;;;;;20.23;8.40;;;;;;;;;;5041810;28;20302;-80
2022/02/11 07:03:19;;;;;;;24.47;8.33;;;;;;;;;;5043007;28;20199;-79
2022/02/11 07:05:47;;;;;;;17.33;7.97;;;;;;;;;;5041113;28;20238;-78
2022/02/11 07:08:14;;;;;;;17.53;8.17;;;;;;;;;;5042358;28;20207;-80
2022/02/11 07:10:41;;;;;;;24.67;8.97;;;;;;;;;;5042788;28;20226;-80
2022/02/11 07:13:13;;;;;;;21.33;8.57;;;;;;;;;;5041369;28;20223;-80
2022/02/11 07:15:41;;;;;;;18.53;7.73;;;;;;;;;;5042690;28;20596;-78
2022/02/11 07:18:08;;;;;;;20.63;8.00;;;;;;;;;;5042253;28;20342;-79
2022/02/11 07:20:35;;;;;;;21.37;8.70;;;;;;;;;;5039884;28;20615;-81
2022/02/11 07:23:02;;;;;;;21.10;8.90;;;;;;;;;;5039149;28;20239;-81
2022/02/11 07:25:29;;;;;;;18.37;7.90;;;;;;;;;;5040425;28;20230;-78
2022/02/11 07:27:57;;;;;;;15.17;7.63;;;;;;;;;;5041036;28;20559;-79
2022/02/11 07:30:26;;;;;;;20.53;8.13;;;;;;;;;;5042961;28;20324;-79
2022/02/11 07:32:53;;;;;;;20.83;7.50;;;;;;;;;;5042582;28;20229;-78
2022/02/11 07:35:20;;;;;;;18.57;7.43;;;;;;;;;;5038643;28;20311;-78
2022/02/11 07:37:47;;;;;;;17.80;7.97;;;;;;;;;;5040224;28;20658;-78
2022/02/11 07:40:15;;;;;;;18.20;7.70;;;;;;;;;;5045996;28;20339;-76
2022/02/11 07:42:44;;;;;;;18.03;7.27;;;;;;;;;;5043414;28;20271;-78
2022/02/11 07:45:12;;;;;;;18.07;7.17;;;;;;;;;;5046458;28;20211;-78
2022/02/11 07:47:40;;;;;;;16.37;6.33;;;;;;;;;;5038813;28;20203;-78
2022/02/11 07:50:08;;;;;;;20.17;7.27;;;;;;;;;;5033524;28;20326;-78
2022/02/11 07:52:36;;;;;;;19.93;6.83;;;;;;;;;;5032652;28;20214;-78
2022/02/11 07:55:03;;;;;;;16.73;6.57;;;;;;;;;;5032550;28;20196;-77
2022/02/11 07:57:30;;;;;;;19.40;6.37;;;;;;;;;;5038389;28;20289;-77
2022/02/11 08:00:03;;;;;;;20.10;6.47;;;;;;;;;;5036067;28;20211;-78
2022/02/11 08:02:31;;;;;;;16.33;6.83;;;;;;;;;;5034099;28;20765;-76
2022/02/11 08:04:59;;;;;;;12.00;6.57;;;;;;;;;;5038636;28;20203;-76
2022/02/11 08:07:26;;;;;;;16.37;6.03;;;;;;;;;;5038589;28;20211;-76
2022/02/11 08:09:53;;;;;;;15.47;5.60;;;;;;;;;;5036051;28;20203;-77
2022/02/11 08:12:21;;;;;;;14.20;6.73;;;;;;;;;;5032581;28;20238;-77
2022/02/11 08:14:48;;;;;;;13.73;5.43;;;;;;;;;;5040291;28;22028;-76
2022/02/11 08:17:15;;;;;;;14.50;5.00;;;;;;;;;;5038473;28;20205;-76
2022/02/11 08:19:42;;;;;;;19.97;6.00;;;;;;;;;;5039181;28;21024;-77
2022/02/11 08:22:11;;;;;;;12.90;4.47;;;;;;;;;;5040502;28;20216;-76
2022/02/11 08:24:38;;;;;;;11.77;5.30;;;;;;;;;;5044423;28;20306;-77
2022/02/11 08:27:05;;;;;;;14.33;4.90;;;;;;;;;;5043121;28;20213;-78
2022/02/11 08:29:35;;;;;;;13.77;5.30;;;;;;;;;;5046864;28;20202;-77
2022/02/11 08:32:02;;;;;;;14.07;5.40;;;;;;;;;;5040585;28;20578;-77
2022/02/11 08:34:29;;;;;;;14.43;5.00;;;;;;;;;;5045077;28;20238;-77
2022/02/11 08:36:57;;;;;;;18.13;4.93;;;;;;;;;;5042049;28;20205;-77
2022/02/11 08:39:25;;;;;;;15.73;5.27;;;;;;;;;;5042530;28;20644;-76
2022/02/11 08:41:53;;;;;;;13.20;5.27;;;;;;;;;;5044719;28;20318;-77
2022/02/11 08:44:20;;;;;;;14.77;5.33;;;;;;;;;;5043064;28;20204;-77
2022/02/11 08:46:47;;;;;;;17.10;4.57;;;;;;;;;;5042426;28;20202;-77
2022/02/11 08:49:14;;;;;;;14.83;5.17;;;;;;;;;;5044859;28;20692;-77
2022/02/11 08:51:42;;;;;;;11.27;4.53;;;;;;;;;;5043722;28;20561;-77
2022/02/11 08:54:09;;;;;;;12.03;5.13;;;;;;;;;;5041012;28;20230;-77
2022/02/11 08:56:39;;;;;;;10.30;4.60;;;;;;;;;;5042161;28;20238;-77
2022/02/11 08:59:06;;;;;;;16.03;4.70;;;;;;;;;;5043431;28;20203;-76
2022/02/11 09:01:33;;;;;;;10.57;4.70;;;;;;;;;;5041859;28;20696;-77
2022/02/11 09:04:01;;;;;;;12.90;4.63;;;;;;;;;;5041247;28;20621;-76
2022/02/11 09:06:28;;;;;;;15.40;5.23;;;;;;;;;;5036637;28;20298;-77
2022/02/11 09:08:55;;;;;;;10.37;4.50;;;;;;;;;;5040409;28;20670;-77
2022/02/11 09:11:22;;;;;;;11.37;4.80;;;;;;;;;;5035603;28;20253;-78
2022/02/11 09:13:51;;;;;;;11.63;4.47;;;;;;;;;;5035086;28;20237;-78
2022/02/11 09:16:19;;;;;;;12.67;4.27;;;;;;;;;;5033635;28;20200;-78
2022/02/11 09:18:46;;;;;;;19.00;4.97;;;;;;;;;;5037854;28;20203;-78
2022/02/11 09:21:13;;;;;;;12.43;3.90;;;;;;;;;;5039690;28;20691;-78
2022/02/11 09:23:41;;;;;;;17.73;4.50;;;;;;;;;;5038941;28;20199;-76
2022/02/11 09:26:08;;;;;;;13.53;5.33;;;;;;;;;;5042704;28;20299;-78
2022/02/11 09:28:36;;;;;;;16.10;6.53;;;;;;;;;;5040537;28;20219;-78
2022/02/11 09:31:05;;;;;;;11.40;4.77;;;;;;;;;;5041381;28;20220;-77
2022/02/11 09:33:33;;;;;;;14.87;4.63;;;;;;;;;;5039866;28;20577;-77
2022/02/11 09:36:00;;;;;;;17.23;4.73;;;;;;;;;;5039447;28;20311;-78
2022/02/11 09:38:27;;;;;;;13.50;4.47;;;;;;;;;;5040716;28;20199;-78
2022/02/11 09:40:54;;;;;;;9.87;3.83;;;;;;;;;;5039151;28;20339;-78
2022/02/11 09:43:23;;;;;;;13.10;4.37;;;;;;;;;;5041542;28;20214;-78
2022/02/11 09:45:50;;;;;;;10.73;3.97;;;;;;;;;;5034566;28;20546;-77
2022/02/11 09:48:19;;;;;;;16.93;4.30;;;;;;;;;;5038984;28;20299;-77
2022/02/11 09:50:49;;;;;;;9.77;3.37;;;;;;;;;;5038418;28;20296;-77
2022/02/11 09:53:16;;;;;;;10.00;3.30;;;;;;;;;;5042617;28;20211;-77
2022/02/11 09:55:45;;;;;;;8.97;3.10;;;;;;;;;;5041454;28;20698;-78
2022/02/11 09:58:13;;;;;;;18.17;5.83;;;;;;;;;;5044808;28;20759;-77
2022/02/11 10:00:41;;;;;;;16.93;3.30;;;;;;;;;;5042605;28;20230;-77
2022/02/11 10:03:16;;;;;;;13.00;4.60;;;;;;;;;;5035909;28;20203;-76
2022/02/11 10:05:46;;;;;;;15.03;4.00;;;;;;;;;;5040633;28;20198;-77
2022/02/11 10:08:13;;;;;;;21.83;6.33;;;;;;;;;;5043443;28;20281;-77
2022/02/11 10:10:42;;;;;;;11.27;4.13;;;;;;;;;;5039368;28;20437;-77
2022/02/11 10:13:10;;;;;;;13.30;3.57;;;;;;;;;;5037823;28;20768;-77
2022/02/11 10:15:38;;;;;;;10.10;3.30;;;;;;;;;;5039631;28;20670;-77
2022/02/11 10:18:05;;;;;;;10.50;3.57;;;;;;;;;;5038200;28;20197;-77
2022/02/11 10:20:36;;;;;;;9.77;3.37;;;;;;;;;;5043417;28;20675;-78
2022/02/11 10:23:13;;;;;;;13.03;3.37;;;;;;;;;;5045168;28;20206;-77
2022/02/11 10:25:53;;;;;;;14.87;3.27;;;;;;;;;;5036276;28;20217;-78
2022/02/11 10:28:25;;;;;;;9.17;2.63;;;;;;;;;;5042035;28;20319;-76
2022/02/11 10:31:06;;;;;;;8.67;2.30;;;;;;;;;;5043439;28;20284;-77
2022/02/11 10:33:48;;;;;;;10.40;2.47;;;;;;;;;;5042419;28;20284;-77
2022/02/11 10:36:15;;;;;;;17.83;3.43;;;;;;;;;;5041296;28;20211;-77
2022/02/11 10:38:44;;;;;;;13.37;3.00;;;;;;;;;;5045736;28;20203;-78
2022/02/11 10:41:11;;;;;;;10.37;2.40;;;;;;;;;;5046331;28;20226;-78
2022/02/11 10:43:38;;;;;;;8.73;2.70;;;;;;;;;;5046034;28;20285;-78
2022/02/11 10:46:16;;;;;;;9.40;3.03;;;;;;;;;;5044346;28;20203;-77
2022/02/11 10:48:44;;;;;;;12.60;2.77;;;;;;;;;;5038834;28;20835;-77
2022/02/11 10:51:21;;;;;;;16.20;3.07;;;;;;;;;;5043980;28;20222;-77
2022/02/11 10:53:49;;;;;;;11.43;2.53;;;;;;;;;;5044570;28;20318;-76
2022/02/11 10:56:16;;;;;;;18.13;2.50;;;;;;;;;;5046827;28;20210;-76
2022/02/11 10:58:53;;;;;;;12.23;2.67;;;;;;;;;;5045059;28;20290;-76
2022/02/11 11:01:20;;;;;;;9.93;2.70;;;;;;;;;;5048575;28;20231;-77
2022/02/11 11:03:48;;;;;;;18.03;2.80;;;;;;;;;;5043571;28;20292;-77
2022/02/11 11:06:15;;;;;;;7.23;2.40;;;;;;;;;;5044768;28;20516;-77
2022/02/11 11:08:43;;;;;;;14.53;2.90;;;;;;;;;;5044920;28;20330;-76
2022/02/11 11:11:12;;;;;;;16.33;2.83;;;;;;;;;;5048563;28;20238;-78
2022/02/11 11:13:39;;;;;;;9.70;2.10;;;;;;;;;;5044880;28;20230;-77
2022/02/11 11:16:08;;;;;;;12.70;2.37;;;;;;;;;;5048428;28;20293;-77
2022/02/11 11:18:37;;;;;;;12.97;2.90;;;;;;;;;;5048262;28;20225;-76
2022/02/11 11:21:05;;;;;;;9.73;2.50;;;;;;;;;;5048456;28;20788;-77
2022/02/11 11:23:35;;;;;;;12.30;4.10;;;;;;;;;;5045788;28;20290;-77
2022/02/11 11:26:05;;;;;;;16.50;2.87;;;;;;;;;;5044422;28;20242;-77
2022/02/11 11:28:48;;;;;;;9.70;2.70;;;;;;;;;;5047722;28;20242;-77
2022/02/11 11:31:17;;;;;;;10.83;2.73;;;;;;;;;;5049964;28;20233;-77
2022/02/11 11:33:45;;;;;;;12.63;2.10;;;;;;;;;;5044014;28;20785;-76
2022/02/11 11:36:13;;;;;;;12.30;2.60;;;;;;;;;;5049080;28;20669;-76
2022/02/11 11:38:43;;;;;;;19.17;2.97;;;;;;;;;;5049179;28;20219;-77
2022/02/11 11:41:12;;;;;;;15.30;3.00;;;;;;;;;;5044793;28;20223;-77
2022/02/11 11:43:41;;;;;;;10.03;2.20;;;;;;;;;;5045973;28;20542;-77
2022/02/11 11:49:03;;;;;;;16.30;3.10;;;;;;;;;;5142754;27;20542;-76
2022/02/11 11:51:31;;;;;;;14.10;2.50;;;;;;;;;;5152486;27;20668;-76
2022/02/11 11:54:16;;;;;;;12.33;2.90;;;;;;;;;;5162912;27;20673;-76
2022/02/11 11:56:44;;;;;;;13.57;2.83;;;;;;;;;;5162589;27;20266;-76
2022/02/11 11:59:15;;;;;;;22.23;2.77;;;;;;;;;;5162973;27;20221;-77
2022/02/11 12:02:03;;;;;;;15.60;2.53;;;;;;;;;;5157954;27;20234;-76
2022/02/11 12:04:32;;;;;;;15.57;3.83;;;;;;;;;;5156159;27;20203;-77
2022/02/11 12:07:00;;;;;;;18.63;2.80;;;;;;;;;;5156236;27;20727;-75
2022/02/11 12:09:28;;;;;;;13.37;3.33;;;;;;;;;;5160291;27;20213;-77
2022/02/11 12:12:00;;;;;;;16.70;2.90;;;;;;;;;;5162051;27;20306;-77
2022/02/11 12:14:28;;;;;;;11.17;3.83;;;;;;;;;;5160182;27;20207;-76
2022/02/11 12:16:55;;;;;;;10.73;2.70;;;;;;;;;;5159496;27;20210;-76
2022/02/11 12:19:23;;;;;;;13.80;2.80;;;;;;;;;;5163460;27;20203;-75
2022/02/11 12:21:51;;;;;;;13.03;2.77;;;;;;;;;;5154636;27;21042;-76
2022/02/11 12:27:23;;;;;;;12.17;2.37;;;;;;;;;;5152188;27;20291;-74
2022/02/11 12:29:51;;;;;;;18.07;2.70;;;;;;;;;;5155416;27;20505;-76
2022/02/11 12:32:19;;;;;;;12.27;2.93;;;;;;;;;;5151490;27;20346;-76
2022/02/11 12:34:50;;;;;;;13.53;2.73;;;;;;;;;;5161589;27;20278;-76
2022/02/11 12:37:19;;;;;;;17.20;2.53;;;;;;;;;;5159037;27;20621;-76
2022/02/11 12:39:46;;;;;;;13.47;2.53;;;;;;;;;;5156540;27;20199;-76
2022/02/11 12:42:17;;;;;;;15.60;2.67;;;;;;;;;;5157691;27;20228;-75
2022/02/11 12:44:45;;;;;;;23.70;3.23;;;;;;;;;;5161413;27;20660;-77
2022/02/11 12:47:12;;;;;;;13.03;2.60;;;;;;;;;;5157285;27;20234;-76
2022/02/11 12:49:46;;;;;;;9.17;2.13;;;;;;;;;;5161741;27;20199;-77
2022/02/11 12:52:21;;;;;;;11.77;2.37;;;;;;;;;;5157600;27;20225;-75
2022/02/11 12:55:05;;;;;;;10.23;2.10;;;;;;;;;;5164249;27;20206;-76
2022/02/11 12:57:32;;;;;;;13.57;2.57;;;;;;;;;;5158405;27;20207;-76
2022/02/11 13:00:02;;;;;;;12.57;2.10;;;;;;;;;;5145514;27;20197;-77
2022/02/11 13:02:32;;;;;;;12.37;2.37;;;;;;;;;;5144841;27;20196;-77
2022/02/11 13:05:03;;;;;;;8.57;2.00;;;;;;;;;;5146559;27;20257;-77
2022/02/11 13:07:31;;;;;;;13.83;4.57;;;;;;;;;;5143585;27;20756;-77
2022/02/11 13:09:59;;;;;;;16.87;2.70;;;;;;;;;;5144782;27;20286;-77
2022/02/11 13:12:34;;;;;;;21.60;3.30;;;;;;;;;;5145731;27;20223;-77
2022/02/11 13:15:02;;;;;;;10.00;1.83;;;;;;;;;;5143352;27;20198;-76
2022/02/11 13:17:30;;;;;;;18.93;3.07;;;;;;;;;;5144339;27;20305;-77
2022/02/11 13:20:05;;;;;;;14.00;2.40;;;;;;;;;;5142356;27;20220;-76
2022/02/11 13:22:34;;;;;;;12.30;2.17;;;;;;;;;;5139575;27;20689;-77
2022/02/11 13:25:01;;;;;;;12.93;2.13;;;;;;;;;;5143251;27;20204;-77
2022/02/11 13:27:39;;;;;;;11.33;2.23;;;;;;;;;;5141387;27;20692;-76
2022/02/11 13:30:07;;;;;;;12.67;2.30;;;;;;;;;;5142116;27;20206;-77
2022/02/11 13:32:34;;;;;;;11.53;2.30;;;;;;;;;;5141042;27;20204;-77
2022/02/11 13:35:01;;;;;;;14.17;2.03;;;;;;;;;;5143085;27;20584;-76
2022/02/11 13:37:37;;;;;;;11.53;2.20;;;;;;;;;;5142552;27;20564;-77
2022/02/11 13:40:10;;;;;;;12.20;2.43;;;;;;;;;;5143084;27;20203;-76
2022/02/11 13:42:37;;;;;;;17.60;2.77;;;;;;;;;;5144453;27;20272;-74
2022/02/11 13:45:07;;;;;;;11.03;2.70;;;;;;;;;;5143857;27;20680;-77
2022/02/11 13:47:34;;;;;;;10.70;2.80;;;;;;;;;;5142641;27;20681;-77
2022/02/11 13:50:05;;;;;;;14.60;2.67;;;;;;;;;;5140790;27;20643;-77
2022/02/11 13:55:18;;;;;;;12.17;2.83;;;;;;;;;;5144114;27;20222;-77
2022/02/11 13:57:45;;;;;;;20.60;2.73;;;;;;;;;;5143675;27;20196;-77
2022/02/11 14:00:25;;;;;;;15.03;2.43;;;;;;;;;;5144677;27;20580;-76
2022/02/11 14:02:57;;;;;;;12.80;2.70;;;;;;;;;;5145971;27;20209;-76
2022/02/11 14:05:24;;;;;;;11.93;2.10;;;;;;;;;;5142783;27;20283;-76
2022/02/11 14:07:52;;;;;;;14.67;2.90;;;;;;;;;;5140058;27;20276;-77
2022/02/11 14:10:21;;;;;;;21.87;2.60;;;;;;;;;;5140933;27;20212;-77
2022/02/11 14:12:48;;;;;;;14.20;2.30;;;;;;;;;;5140612;27;20206;-75
2022/02/11 14:15:16;;;;;;;14.37;2.20;;;;;;;;;;5143318;27;20526;-76
2022/02/11 14:17:43;;;;;;;10.87;2.50;;;;;;;;;;5144230;27;20199;-75
2022/02/11 14:20:10;;;;;;;16.37;2.00;;;;;;;;;;5140682;27;20682;-75
2022/02/11 14:22:38;;;;;;;9.80;1.73;;;;;;;;;;5140124;27;20199;-77
2022/02/11 14:25:06;;;;;;;13.67;2.60;;;;;;;;;;5145163;27;20206;-76
2022/02/11 14:27:35;;;;;;;14.70;2.47;;;;;;;;;;5144188;27;20646;-77
2022/02/11 14:30:03;;;;;;;10.50;2.10;;;;;;;;;;5146209;27;20294;-76
2022/02/11 14:32:30;;;;;;;12.67;2.23;;;;;;;;;;5143415;27;20225;-77
2022/02/11 14:34:57;;;;;;;11.33;1.93;;;;;;;;;;5145461;27;20207;-76
2022/02/11 14:37:25;;;;;;;11.43;2.37;;;;;;;;;;5143006;27;20210;-77
2022/02/11 14:39:52;;;;;;;9.37;2.60;;;;;;;;;;5142444;27;20224;-77
2022/02/11 14:42:19;;;;;;;9.77;2.13;;;;;;;;;;5143927;27;20219;-74
2022/02/11 14:44:48;;;;;;;12.27;2.80;;;;;;;;;;5143376;27;20290;-77
2022/02/11 14:47:15;;;;;;;32.57;11.23;;;;;;;;;;5143451;27;20214;-76
2022/02/11 14:49:42;;;;;;;24.27;6.30;;;;;;;;;;5140945;27;20226;-76
2022/02/11 14:52:12;;;;;;;15.23;3.17;;;;;;;;;;5142840;27;20219;-76
2022/02/11 14:54:39;;;;;;;14.20;3.20;;;;;;;;;;5141299;27;20630;-77
2022/02/11 14:57:08;;;;;;;7.17;2.70;;;;;;;;;;5144541;27;20206;-77
2022/02/11 14:59:35;;;;;;;13.83;2.00;;;;;;;;;;5146329;27;20192;-77
2022/02/11 15:02:04;;;;;;;8.53;2.17;;;;;;;;;;5142631;27;20329;-76
2022/02/11 15:04:31;;;;;;;7.67;1.77;;;;;;;;;;5144516;27;20210;-77
2022/02/11 15:07:01;;;;;;;11.53;2.13;;;;;;;;;;5143940;27;20206;-77
2022/02/11 15:09:28;;;;;;;16.33;2.30;;;;;;;;;;5140585;27;20588;-77
2022/02/11 15:11:55;;;;;;;13.83;2.37;;;;;;;;;;5143629;27;20223;-76
2022/02/11 15:14:24;;;;;;;10.37;2.13;;;;;;;;;;5141974;27;20204;-76
2022/02/11 15:16:51;;;;;;;10.53;3.10;;;;;;;;;;5142283;27;20214;-76
2022/02/11 15:19:20;;;;;;;22.10;3.33;;;;;;;;;;5144290;27;20202;-77
2022/02/11 15:21:47;;;;;;;14.70;4.77;;;;;;;;;;5142830;27;20249;-77
2022/02/11 15:24:15;;;;;;;13.57;2.50;;;;;;;;;;5140791;27;20214;-76
2022/02/11 15:26:42;;;;;;;5.97;2.20;;;;;;;;;;5143586;27;20199;-77
2022/02/11 15:29:09;;;;;;;17.20;4.80;;;;;;;;;;5142792;27;20227;-76
2022/02/11 15:31:38;;;;;;;9.27;3.67;;;;;;;;;;5143067;27;20230;-77
2022/02/11 15:34:06;;;;;;;8.90;2.23;;;;;;;;;;5139655;27;20269;-77
2022/02/11 15:36:35;;;;;;;15.97;2.30;;;;;;;;;;5141152;27;20283;-76
2022/02/11 15:39:02;;;;;;;12.57;2.40;;;;;;;;;;5142850;27;20291;-77
2022/02/11 15:41:29;;;;;;;18.80;2.57;;;;;;;;;;5136745;27;20231;-75
2022/02/11 15:43:56;;;;;;;13.77;2.33;;;;;;;;;;5142148;27;20567;-77
2022/02/11 15:46:23;;;;;;;6.43;1.63;;;;;;;;;;5139724;27;20681;-77
2022/02/11 15:48:51;;;;;;;8.63;2.50;;;;;;;;;;5141351;27;20318;-77
2022/02/11 15:51:18;;;;;;;11.17;1.80;;;;;;;;;;5140567;27;20237;-76
2022/02/11 15:53:47;;;;;;;8.57;2.00;;;;;;;;;;5137914;27;20210;-77
2022/02/11 15:56:15;;;;;;;15.77;2.77;;;;;;;;;;5141406;27;21027;-77
2022/02/11 15:58:43;;;;;;;7.87;2.00;;;;;;;;;;5146421;27;20203;-77
2022/02/11 16:01:10;;;;;;;11.53;1.93;;;;;;;;;;5143345;27;20216;-77
2022/02/11 16:03:38;;;;;;;17.10;2.43;;;;;;;;;;5141044;27;20646;-76
2022/02/11 16:06:05;;;;;;;9.73;2.97;;;;;;;;;;5139537;27;20230;-75
2022/02/11 16:08:32;;;;;;;9.07;2.00;;;;;;;;;;5144116;27;20302;-77
2022/02/11 16:11:01;;;;;;;7.43;2.47;;;;;;;;;;5149069;27;20302;-78
2022/02/11 16:13:28;;;;;;;13.20;2.63;;;;;;;;;;5147291;27;20271;-77
2022/02/11 16:15:55;;;;;;;8.17;2.07;;;;;;;;;;5149143;27;20290;-78
2022/02/11 16:18:24;;;;;;;11.17;2.10;;;;;;;;;;5157372;27;20196;-76
2022/02/11 16:20:51;;;;;;;11.50;1.90;;;;;;;;;;5152509;27;20225;-78
2022/02/11 16:23:19;;;;;;;8.70;1.73;;;;;;;;;;5153261;27;20249;-76
2022/02/11 16:25:47;;;;;;;6.17;1.70;;;;;;;;;;5152683;27;20304;-78
2022/02/11 16:28:16;;;;;;;11.67;2.53;;;;;;;;;;5154364;27;20208;-77
2022/02/11 16:30:44;;;;;;;6.40;1.67;;;;;;;;;;5150506;27;20223;-78
2022/02/11 16:33:12;;;;;;;11.97;2.30;;;;;;;;;;5154642;27;20204;-78
2022/02/11 16:35:40;;;;;;;12.07;1.93;;;;;;;;;;5156682;27;20284;-77
2022/02/11 16:38:07;;;;;;;7.00;2.10;;;;;;;;;;5153861;27;20220;-77
2022/02/11 16:40:34;;;;;;;8.07;2.33;;;;;;;;;;5155216;27;20226;-77
2022/02/11 16:43:02;;;;;;;12.63;2.30;;;;;;;;;;5147146;27;20289;-77
2022/02/11 16:45:33;;;;;;;22.97;8.87;;;;;;;;;;5152092;27;20256;-76
2022/02/11 16:48:01;;;;;;;10.23;2.60;;;;;;;;;;5148373;27;20203;-77
2022/02/11 16:50:28;;;;;;;12.27;2.13;;;;;;;;;;5141086;27;20284;-77
2022/02/11 16:52:56;;;;;;;13.97;1.90;;;;;;;;;;5144876;27;20699;-77
2022/02/11 16:55:23;;;;;;;18.57;2.10;;;;;;;;;;5142740;27;20627;-77
2022/02/11 16:57:50;;;;;;;13.93;2.20;;;;;;;;;;5142592;27;20208;-77
2022/02/11 17:00:18;;;;;;;7.47;1.67;;;;;;;;;;5141338;27;20283;-76
2022/02/11 17:02:46;;;;;;;10.00;1.97;;;;;;;;;;5145257;27;20195;-77
2022/02/11 17:05:20;;;;;;;13.97;1.83;;;;;;;;;;5145856;27;20203;-76
2022/02/11 17:07:48;;;;;;;14.37;2.10;;;;;;;;;;5144863;27;20256;-78
2022/02/11 17:10:15;;;;;;;17.67;2.03;;;;;;;;;;5143633;27;20258;-77
2022/02/11 17:12:42;;;;;;;8.97;2.10;;;;;;;;;;5144036;27;20250;-77
2022/02/11 17:15:11;;;;;;;9.40;2.20;;;;;;;;;;5143854;27;20646;-77
2022/02/11 17:17:38;;;;;;;13.50;2.30;;;;;;;;;;5146303;27;20200;-77
2022/02/11 17:20:09;;;;;;;16.23;2.97;;;;;;;;;;5148123;27;20199;-77
2022/02/11 17:22:36;;;;;;;9.10;2.73;;;;;;;;;;5144085;27;20205;-76
2022/02/11 17:25:04;;;;;;;6.20;1.33;;;;;;;;;;5145484;27;20207;-76
2022/02/11 17:27:32;;;;;;;11.70;1.80;;;;;;;;;;5142995;27;20199;-77
2022/02/11 17:30:00;;;;;;;13.40;2.87;;;;;;;;;;5143413;27;20224;-77
2022/02/11 17:32:27;;;;;;;8.80;2.70;;;;;;;;;;5143409;27;20234;-76
2022/02/11 17:34:54;;;;;;;9.00;3.03;;;;;;;;;;5141695;27;20208;-77
2022/02/11 17:37:23;;;;;;;8.67;1.83;;;;;;;;;;5145027;27;20290;-76
2022/02/11 17:39:50;;;;;;;9.87;1.73;;;;;;;;;;5142112;27;20244;-76
2022/02/11 17:42:18;;;;;;;7.17;1.53;;;;;;;;;;5140339;27;20281;-77
2022/02/11 17:44:46;;;;;;;9.17;1.50;;;;;;;;;;5141631;27;20207;-77
2022/02/11 17:47:14;;;;;;;21.57;7.67;;;;;;;;;;5145145;27;20204;-77
2022/02/11 17:49:41;;;;;;;8.27;2.63;;;;;;;;;;5145488;27;20621;-76
2022/02/11 17:52:11;;;;;;;6.87;1.50;;;;;;;;;;5147321;27;20230;-76
2022/02/11 17:54:40;;;;;;;12.97;1.90;;;;;;;;;;5148996;27;20302;-77
2022/02/11 17:57:07;;;;;;;7.00;1.83;;;;;;;;;;5149690;27;20624;-77
2022/02/11 17:59:34;;;;;;;6.57;1.90;;;;;;;;;;5149235;27;20203;-77
2022/02/11 18:02:02;;;;;;;11.53;2.40;;;;;;;;;;5152935;27;20696;-76